メインページ
METAR-TAF:

METAR-TAF

空港 :

ベオグラード, セルビア

ベオグラード・ニコラ・テスラ空港

緯度: 44-49N, 経度: 020-17E, 海抜: 96m

現時点の気象観測

当レポートは33分前の14:00(UTC)に作成
西/南西の風 4kt
気温 3°C
湿度 93%
気圧 1005 hPa
視程: 3000m
高度700ftの雲は散在している
高度2700ftの千切れ雲あり
小雨, 靄

METAR: LYBE 211400Z 24004KT 3000 -RA BR SCT007 BKN027 03/02 Q1005 BECMG FM1500 33012KT 5000 BKN010

時間: 15:33 (14:33 UTC)

予報

当レポートは3時間33分前の11:00(UTC)に作成
予報は21日の 12時(UTC)から 22日の 12時(UTC)まで有効
南東の風 8kt
視程: 7000m
高度1500ftの雲は散在している
高度3000ftの千切れ雲あり
小雨
21日の 14時(UTC)から 21日の 16時(UTC)まで徐々に
北/北西の風 16kt
視程: 5000m
高度1300ftの千切れ雲あり
高度2700ftの千切れ雲あり
21日の 19時(UTC)から 21日の 21時(UTC)まで徐々に
視程: 2000m
高度700ftの千切れ雲あり
高度2300ftの千切れ雲あり
小雪
22日の 01時(UTC)から 22日の 03時(UTC)まで徐々に
視程: 6000m
高度1500ftの雲は散在している
高度3000ftの千切れ雲あり

TAF: LYBE 211100Z 2112/2212 14008KT 7000 -RA SCT015 BKN030 TX03/2112Z TNM01/2205Z BECMG 2114/2116 33016KT 5000 RA BKN013 BKN027 BECMG 2119/2121 2000 -SN BKN007 BKN023 BECMG 2201/2203 6000 NSW SCT015 BKN030

4,000以上の空港の気象観測と天気予報(METAR報とTAF報)

利用可能な観測所は地図上に黄色い丸と赤い丸で示す。

丸の上にカーソルを重ねると観測所名を参照できる。

次にクリックすると気象観測と天気予報を参照できる。

マップの切り替え:黒色「×」印の緑ボタンをクリックして拡大、「-」印の緑ボタンをクリックして縮小、緑色の三角印をクリックして隣りの地図に切り替え


METAR-TAF: